Roxane — 9H9917 — position and weather

sailwx.info

Track history (hours):
 
Tides and Currents Weather Stations Pressure Air Temp Water Temp Dewpoint Dewpoint Depression Visibility Wind Speed Wind Dir Waves Ship Positions

Roxane

Last reported at 2016-Jul-27 04:08 UTC. Time now 2016-Jul-30 07:24 UTC.
Position N 42°18' E 008°03'.

Length 46 m.

Type: Sailing vessel. MMSI: 248548000.

Date/timePositionNaut miles runAvg speedWind from/ knotsBaromVisibWave heightAir tempDewpointWater temp
2016-Jul-27 04:08N 42°18' E 008°03'6 9.8
2016-Jul-27 03:30N 42°22' E 007°57'5110.2
2016-Jul-26 22:33N 42°58' E 007°08'  
2016-Jul-24 07:31N 43°28' E 007°01'9 9.0
2016-Jul-24 06:32N 43°35' E 007°08'0 0.1
2016-Jul-24 05:32N 43°35' E 007°08'0 0.0
2016-Jul-24 04:32N 43°35' E 007°08'0 0.0
2016-Jul-24 03:32N 43°35' E 007°08'0 0.0
2016-Jul-24 02:32N 43°35' E 007°08'0 0.0
2016-Jul-24 01:32N 43°35' E 007°08'0 0.0
2016-Jul-24 00:32N 43°35' E 007°08'0 0.0
2016-Jul-23 23:32N 43°35' E 007°08'0 0.0
2016-Jul-23 22:26N 43°35' E 007°08'0 0.0
2016-Jul-23 21:32N 43°35' E 007°08'0 0.0
2016-Jul-23 20:26N 43°35' E 007°08'0 0.0
2016-Jul-23 19:26N 43°35' E 007°08'0 0.0
2016-Jul-23 18:32N 43°35' E 007°08'0 0.0
2016-Jul-23 17:32N 43°35' E 007°08'0 0.0
2016-Jul-23 16:32N 43°35' E 007°08'0 0.0
2016-Jul-23 15:32N 43°35' E 007°08'0 0.0
2016-Jul-23 14:26N 43°35' E 007°08'0 0.0
2016-Jul-23 13:32N 43°35' E 007°08'0 0.0
2016-Jul-23 12:20N 43°35' E 007°08'0 0.0
2016-Jul-23 11:32N 43°35' E 007°08'0 0.0
2016-Jul-23 10:32N 43°35' E 007°08'0 0.0
2016-Jul-23 09:26N 43°35' E 007°08'0 0.0
2016-Jul-23 08:32N 43°35' E 007°08'0 0.0
2016-Jul-23 07:26N 43°35' E 007°08'0 0.0
2016-Jul-23 06:32N 43°35' E 007°08'0 0.0
2016-Jul-23 04:32N 43°35' E 007°08'0 0.0
2016-Jul-23 03:20N 43°35' E 007°08'0 0.0
2016-Jul-23 02:32N 43°35' E 007°08'0 0.0
2016-Jul-23 01:32N 43°35' E 007°08'0 0.0
2016-Jul-23 00:32N 43°35' E 007°08'0 0.0
2016-Jul-22 23:32N 43°35' E 007°08'0 0.0
2016-Jul-22 22:32N 43°35' E 007°08'0 0.0
2016-Jul-22 21:32N 43°35' E 007°08'0 0.0
2016-Jul-22 20:32N 43°35' E 007°08'0 0.0
2016-Jul-22 19:14N 43°35' E 007°08'0 0.0
2016-Jul-22 18:32N 43°35' E 007°08'0 0.0
2016-Jul-22 17:32N 43°35' E 007°08'0 0.0
2016-Jul-22 16:14N 43°35' E 007°08'0 0.0
2016-Jul-22 15:32N 43°35' E 007°08'0 0.0
2016-Jul-22 14:32N 43°35' E 007°08'0 0.0
2016-Jul-22 13:32N 43°35' E 007°08'0 0.0
2016-Jul-22 12:32N 43°35' E 007°08'0 0.0
2016-Jul-22 11:32N 43°35' E 007°08'0 0.0
2016-Jul-22 10:32N 43°35' E 007°08'0 0.0
2016-Jul-22 09:32N 43°35' E 007°08'0 0.0
2016-Jul-22 08:32N 43°35' E 007°08'0 0.0
2016-Jul-22 07:32N 43°35' E 007°08'0 0.0
2016-Jul-22 04:26N 43°35' E 007°08'0 0.0
2016-Jul-22 03:26N 43°35' E 007°08'0 0.0
2016-Jul-22 02:32N 43°35' E 007°08'0 0.0
2016-Jul-22 01:33N 43°35' E 007°08'0 0.0
2016-Jul-22 00:33N 43°35' E 007°08'0 0.0
2016-Jul-21 23:33N 43°35' E 007°08'0 0.0
2016-Jul-21 22:15N 43°35' E 007°08'0 0.0
2016-Jul-21 21:33N 43°35' E 007°08'0 0.0
2016-Jul-21 20:33N 43°35' E 007°08'0 0.0
2016-Jul-21 19:33N 43°35' E 007°08'0 0.0
2016-Jul-21 18:33N 43°35' E 007°08'0 0.0
2016-Jul-21 17:33N 43°35' E 007°08'0 0.0
2016-Jul-21 16:33N 43°35' E 007°08'0 0.0
2016-Jul-21 15:33N 43°35' E 007°08'0 0.0
2016-Jul-21 14:33N 43°35' E 007°08'0 0.0
2016-Jul-21 13:33N 43°35' E 007°08'0 0.0
2016-Jul-21 12:33N 43°35' E 007°08'0 0.0
2016-Jul-21 11:33N 43°35' E 007°08'0 0.0
2016-Jul-21 10:33N 43°35' E 007°08'0 0.0
2016-Jul-21 09:33N 43°35' E 007°08'0 0.0
2016-Jul-21 08:33N 43°35' E 007°08'0 0.0
2016-Jul-21 07:33N 43°35' E 007°08'0 0.3
2016-Jul-21 06:30N 43°36' E 007°08'0 0.0
2016-Jul-21 05:30N 43°36' E 007°08'0 0.0
2016-Jul-21 04:30N 43°36' E 007°08'0 0.0
2016-Jul-21 03:30N 43°36' E 007°08'6 6.4
2016-Jul-21 02:33N 43°30' E 007°05'25 1.7
2016-Jul-20 12:24N 43°13' E 006°40'1 0.7
2016-Jul-20 11:32N 43°13' E 006°40'4 0.6
2016-Jul-20 05:27N 43°17' E 006°38'21 3.6
2016-Jul-19 23:32N 43°07' E 007°03'1110.0
2016-Jul-19 22:28N 42°59' E 007°14'9 9.9
2016-Jul-19 21:33N 42°52' E 007°21'1010.3
2016-Jul-19 20:33N 42°44' E 007°29'  
Track history (hours):
 
Tides and Currents Weather Stations Pressure Air Temp Water Temp Dewpoint Dewpoint Depression Visibility Wind Speed Wind Dir Waves Ship Positions

Roxane

Last reported at 2016-Jul-27 04:08 UTC. Time now 2016-Jul-30 07:24 UTC.
Position N 42°18' E 008°03'.

Length 46 m.

Type: Sailing vessel. MMSI: 248548000.

Date/timePositionNaut miles runAvg speedWind from/ knotsBaromVisibWave heightAir tempDewpointWater temp
2016-Jul-27 04:08N 42°18' E 008°03'6 9.8
2016-Jul-27 03:30N 42°22' E 007°57'5110.2
2016-Jul-26 22:33N 42°58' E 007°08'  
2016-Jul-24 07:31N 43°28' E 007°01'9 9.0
2016-Jul-24 06:32N 43°35' E 007°08'0 0.1
2016-Jul-24 05:32N 43°35' E 007°08'0 0.0
2016-Jul-24 04:32N 43°35' E 007°08'0 0.0
2016-Jul-24 03:32N 43°35' E 007°08'0 0.0
2016-Jul-24 02:32N 43°35' E 007°08'0 0.0
2016-Jul-24 01:32N 43°35' E 007°08'0 0.0
2016-Jul-24 00:32N 43°35' E 007°08'0 0.0
2016-Jul-23 23:32N 43°35' E 007°08'0 0.0
2016-Jul-23 22:26N 43°35' E 007°08'0 0.0
2016-Jul-23 21:32N 43°35' E 007°08'0 0.0
2016-Jul-23 20:26N 43°35' E 007°08'0 0.0
2016-Jul-23 19:26N 43°35' E 007°08'0 0.0
2016-Jul-23 18:32N 43°35' E 007°08'0 0.0
2016-Jul-23 17:32N 43°35' E 007°08'0 0.0
2016-Jul-23 16:32N 43°35' E 007°08'0 0.0
2016-Jul-23 15:32N 43°35' E 007°08'0 0.0
2016-Jul-23 14:26N 43°35' E 007°08'0 0.0
2016-Jul-23 13:32N 43°35' E 007°08'0 0.0
2016-Jul-23 12:20N 43°35' E 007°08'0 0.0
2016-Jul-23 11:32N 43°35' E 007°08'0 0.0
2016-Jul-23 10:32N 43°35' E 007°08'0 0.0
2016-Jul-23 09:26N 43°35' E 007°08'0 0.0
2016-Jul-23 08:32N 43°35' E 007°08'0 0.0
2016-Jul-23 07:26N 43°35' E 007°08'0 0.0
2016-Jul-23 06:32N 43°35' E 007°08'0 0.0
2016-Jul-23 04:32N 43°35' E 007°08'0 0.0
2016-Jul-23 03:20N 43°35' E 007°08'0 0.0
2016-Jul-23 02:32N 43°35' E 007°08'0 0.0
2016-Jul-23 01:32N 43°35' E 007°08'0 0.0
2016-Jul-23 00:32N 43°35' E 007°08'0 0.0
2016-Jul-22 23:32N 43°35' E 007°08'0 0.0
2016-Jul-22 22:32N 43°35' E 007°08'0 0.0
2016-Jul-22 21:32N 43°35' E 007°08'0 0.0
2016-Jul-22 20:32N 43°35' E 007°08'0 0.0
2016-Jul-22 19:14N 43°35' E 007°08'0 0.0
2016-Jul-22 18:32N 43°35' E 007°08'0 0.0
2016-Jul-22 17:32N 43°35' E 007°08'0 0.0
2016-Jul-22 16:14N 43°35' E 007°08'0 0.0
2016-Jul-22 15:32N 43°35' E 007°08'0 0.0
2016-Jul-22 14:32N 43°35' E 007°08'0 0.0
2016-Jul-22 13:32N 43°35' E 007°08'0 0.0
2016-Jul-22 12:32N 43°35' E 007°08'0 0.0
2016-Jul-22 11:32N 43°35' E 007°08'0 0.0
2016-Jul-22 10:32N 43°35' E 007°08'0 0.0
2016-Jul-22 09:32N 43°35' E 007°08'0 0.0
2016-Jul-22 08:32N 43°35' E 007°08'0 0.0
2016-Jul-22 07:32N 43°35' E 007°08'0 0.0
2016-Jul-22 04:26N 43°35' E 007°08'0 0.0
2016-Jul-22 03:26N 43°35' E 007°08'0 0.0
2016-Jul-22 02:32N 43°35' E 007°08'0 0.0
2016-Jul-22 01:33N 43°35' E 007°08'0 0.0
2016-Jul-22 00:33N 43°35' E 007°08'0 0.0
2016-Jul-21 23:33N 43°35' E 007°08'0 0.0
2016-Jul-21 22:15N 43°35' E 007°08'0 0.0
2016-Jul-21 21:33N 43°35' E 007°08'0 0.0
2016-Jul-21 20:33N 43°35' E 007°08'0 0.0
2016-Jul-21 19:33N 43°35' E 007°08'0 0.0
2016-Jul-21 18:33N 43°35' E 007°08'0 0.0
2016-Jul-21 17:33N 43°35' E 007°08'0 0.0
2016-Jul-21 16:33N 43°35' E 007°08'0 0.0
2016-Jul-21 15:33N 43°35' E 007°08'0 0.0
2016-Jul-21 14:33N 43°35' E 007°08'0 0.0
2016-Jul-21 13:33N 43°35' E 007°08'0 0.0
2016-Jul-21 12:33N 43°35' E 007°08'0 0.0
2016-Jul-21 11:33N 43°35' E 007°08'0 0.0
2016-Jul-21 10:33N 43°35' E 007°08'0 0.0
2016-Jul-21 09:33N 43°35' E 007°08'0 0.0
2016-Jul-21 08:33N 43°35' E 007°08'0 0.0
2016-Jul-21 07:33N 43°35' E 007°08'0 0.3
2016-Jul-21 06:30N 43°36' E 007°08'0 0.0
2016-Jul-21 05:30N 43°36' E 007°08'0 0.0
2016-Jul-21 04:30N 43°36' E 007°08'0 0.0
2016-Jul-21 03:30N 43°36' E 007°08'6 6.4
2016-Jul-21 02:33N 43°30' E 007°05'25 1.7
2016-Jul-20 12:24N 43°13' E 006°40'1 0.7
2016-Jul-20 11:32N 43°13' E 006°40'4 0.6
2016-Jul-20 05:27N 43°17' E 006°38'21 3.6
2016-Jul-19 23:32N 43°07' E 007°03'1110.0
2016-Jul-19 22:28N 42°59' E 007°14'9 9.9
2016-Jul-19 21:33N 42°52' E 007°21'1010.3
2016-Jul-19 20:33N 42°44' E 007°29'  

Dump ship's entire track history